Time;durP1;ratioP1;P1;durP2;ratioP2;P2;SDS_P1;SDS_P2;PMS_P1;PMS_P2;Temp;Humidity;BMP_temperature;BMP_pressure;BME280_temperature;BME280_humidity;BME280_pressure;Samples;Min_cycle;Max_cycle;Signal;HPM_P1;HPM_P2
2022/07/27 00:01:07;;;;;;;3.80;3.50;;;22.00;99.90;;;;;;5066075;28;20945;-79
2022/07/27 00:03:51;;;;;;;5.13;4.17;;;22.00;99.90;;;;;;5066833;28;20389;-79
2022/07/27 00:06:36;;;;;;;5.33;3.80;;;21.90;99.90;;;;;;5066688;28;20578;-79
2022/07/27 00:09:21;;;;;;;3.63;3.40;;;21.90;99.90;;;;;;5066787;28;20436;-79
2022/07/27 00:12:05;;;;;;;8.00;4.27;;;21.80;99.90;;;;;;5066991;28;20236;-79
2022/07/27 00:14:49;;;;;;;7.27;4.17;;;21.90;99.90;;;;;;5067033;28;20511;-79
2022/07/27 00:17:34;;;;;;;4.03;3.73;;;21.90;99.90;;;;;;5067090;28;20398;-79
2022/07/27 00:20:18;;;;;;;10.53;3.93;;;21.70;99.90;;;;;;5067351;28;20390;-79
2022/07/27 00:23:03;;;;;;;4.07;3.57;;;21.80;99.90;;;;;;5064002;28;20561;-81
2022/07/27 00:25:48;;;;;;;3.67;3.37;;;21.90;99.90;;;;;;5063422;28;20407;-80
2022/07/27 00:28:33;;;;;;;3.90;3.60;;;21.90;99.90;;;;;;5061825;28;20390;-81
2022/07/27 00:31:17;;;;;;;5.33;3.63;;;21.80;99.90;;;;;;5062386;28;20454;-81
2022/07/27 00:34:01;;;;;;;4.53;3.73;;;21.80;99.90;;;;;;5061818;28;20379;-82
2022/07/27 00:36:45;;;;;;;4.40;4.10;;;21.80;99.90;;;;;;5061566;28;20444;-82
2022/07/27 00:39:30;;;;;;;4.80;3.60;;;21.80;99.90;;;;;;5062107;28;20390;-82
2022/07/27 00:42:15;;;;;;;4.10;3.80;;;21.70;99.90;;;;;;5062200;28;20444;-82
2022/07/27 00:44:59;;;;;;;3.53;3.33;;;21.60;99.90;;;;;;5047297;28;20509;-82
2022/07/27 00:47:44;;;;;;;4.87;3.47;;;21.60;99.90;;;;;;5061107;28;20405;-82
2022/07/27 00:50:28;;;;;;;3.20;2.90;;;21.60;99.90;;;;;;5061619;28;20763;-82
2022/07/27 00:53:13;;;;;;;3.73;3.43;;;21.70;99.90;;;;;;5061673;28;20393;-82
2022/07/27 00:55:59;;;;;;;3.20;3.00;;;21.60;99.90;;;;;;5046296;28;21042;-81
2022/07/27 00:58:46;;;;;;;4.63;3.13;;;21.60;99.90;;;;;;5062250;28;20394;-81
2022/07/27 01:01:30;;;;;;;4.60;4.20;;;21.60;99.90;;;;;;5065277;28;20429;-79
2022/07/27 01:04:14;;;;;;;4.63;4.33;;;21.60;99.90;;;;;;5065014;28;20382;-81
2022/07/27 01:07:01;;;;;;;4.17;3.53;;;21.60;99.90;;;;;;5060223;28;20393;-81
2022/07/27 01:10:01;;;;;;;4.80;3.80;;;21.60;99.90;;;;;;5045693;28;20390;-81
2022/07/27 01:12:45;;;;;;;5.10;4.60;;;21.60;99.90;;;;;;5061030;28;20443;-81
2022/07/27 01:15:31;;;;;;;3.93;3.53;;;21.60;99.90;;;;;;5060448;28;21042;-81
2022/07/27 01:18:33;;;;;;;3.70;3.40;;;21.60;99.90;;;;;;5061306;28;20394;-81
2022/07/27 01:21:17;;;;;;;5.80;3.90;;;21.50;99.90;;;;;;5046167;28;20932;-81
2022/07/27 01:24:01;;;;;;;3.87;3.57;;;21.50;99.90;;;;;;5061029;28;20401;-82
2022/07/27 01:26:46;;;;;;;4.30;4.00;;;21.50;99.90;;;;;;5060839;28;20389;-82
2022/07/27 01:29:32;;;;;;;4.17;3.87;;;21.50;99.90;;;;;;5060937;28;20415;-82
2022/07/27 01:32:16;;;;;;;5.07;3.97;;;21.40;99.90;;;;;;5061142;28;20390;-81
2022/07/27 01:35:00;;;;;;;4.30;3.90;;;21.40;99.90;;;;;;5060795;28;20386;-80
2022/07/27 01:37:45;;;;;;;4.70;3.23;;;21.40;99.90;;;;;;5045916;28;20471;-80
2022/07/27 01:40:29;;;;;;;6.10;3.90;;;21.40;99.90;;;;;;5060717;28;20478;-82
2022/07/27 01:43:14;;;;;;;3.77;3.40;;;21.40;99.90;;;;;;5060659;28;20406;-81
2022/07/27 01:45:58;;;;;;;3.77;3.43;;;21.40;99.90;;;;;;5060900;28;20390;-82
2022/07/27 01:48:42;;;;;;;4.87;3.10;;;21.30;99.90;;;;;;5060595;28;20906;-82
2022/07/27 01:51:27;;;;;;;3.60;3.30;;;21.30;99.90;;;;;;5060580;28;20385;-81
2022/07/27 01:54:12;;;;;;;3.40;3.20;;;21.40;99.90;;;;;;5061031;28;20477;-81
2022/07/27 01:56:56;;;;;;;2.83;2.63;;;21.40;99.90;;;;;;5059981;28;20492;-81
2022/07/27 01:59:42;;;;;;;4.30;3.67;;;21.40;99.90;;;;;;5060597;28;20464;-82
2022/07/27 02:02:26;;;;;;;4.17;3.87;;;21.30;99.90;;;;;;5059576;28;20488;-81
2022/07/27 02:05:11;;;;;;;3.60;3.30;;;21.30;99.90;;;;;;5060125;28;20382;-82
2022/07/27 02:07:56;;;;;;;3.93;3.57;;;21.20;99.90;;;;;;5059691;28;20378;-81
2022/07/27 02:12:34;;;;;;;4.27;3.97;;;21.20;99.90;;;;;;5059892;28;20413;-82
2022/07/27 02:13:47;;;;;;;3.07;2.87;;;21.20;99.90;;;;;;5059844;28;20461;-82
2022/07/27 02:16:31;;;;;;;3.67;3.47;;;21.10;99.90;;;;;;5060000;28;20464;-82
2022/07/27 02:19:17;;;;;;;3.30;3.10;;;21.00;99.90;;;;;;5060387;28;20378;-82
2022/07/27 02:22:02;;;;;;;3.27;2.97;;;21.00;99.90;;;;;;5059787;28;20425;-82
2022/07/27 02:24:46;;;;;;;3.07;2.87;;;20.90;99.90;;;;;;5044451;28;20379;-82
2022/07/27 02:27:30;;;;;;;4.63;3.30;;;20.90;99.90;;;;;;5059921;28;20389;-82
2022/07/27 02:30:15;;;;;;;4.50;3.67;;;20.80;99.90;;;;;;5044654;28;20433;-81
2022/07/27 02:32:59;;;;;;;3.77;3.33;;;20.60;99.90;;;;;;5059512;28;20389;-82
2022/07/27 02:35:44;;;;;;;3.53;3.23;;;20.70;99.90;;;;;;5059095;28;20445;-82
2022/07/27 02:38:28;;;;;;;3.77;3.40;;;20.70;99.90;;;;;;5059104;28;20441;-82
2022/07/27 02:41:14;;;;;;;4.13;3.20;;;20.70;99.90;;;;;;5059696;28;20373;-82
2022/07/27 02:43:58;;;;;;;2.90;2.70;;;20.70;99.90;;;;;;5059303;28;20432;-82
2022/07/27 02:46:43;;;;;;;9.00;3.40;;;20.60;99.90;;;;;;5059138;28;20390;-82
2022/07/27 02:49:27;;;;;;;3.83;3.57;;;20.60;99.90;;;;;;5059402;28;20469;-82
2022/07/27 02:52:12;;;;;;;3.83;3.30;;;20.50;99.90;;;;;;5059609;28;20405;-82
2022/07/27 02:54:56;;;;;;;5.00;4.20;;;20.40;99.90;;;;;;5059734;28;20397;-82
2022/07/27 02:57:40;;;;;;;4.57;4.00;;;20.30;99.90;;;;;;5064336;28;20424;-82
2022/07/27 03:00:25;;;;;;;4.03;3.60;;;20.30;99.90;;;;;;5063726;28;20382;-82
2022/07/27 03:03:09;;;;;;;4.53;4.00;;;20.20;99.90;;;;;;5064350;28;20389;-82
2022/07/27 03:05:54;;;;;;;4.10;3.70;;;20.20;99.90;;;;;;5063702;28;20425;-82
2022/07/27 03:08:38;;;;;;;5.77;3.93;;;20.10;99.90;;;;;;5063363;28;20392;-82
2022/07/27 03:11:22;;;;;;;4.03;3.70;;;20.00;99.90;;;;;;5063087;28;20485;-81
2022/07/27 03:14:07;;;;;;;6.70;4.00;;;19.90;99.90;;;;;;5063343;28;20496;-81
2022/07/27 03:16:52;;;;;;;4.33;3.90;;;19.90;99.90;;;;;;5049076;28;20453;-80
2022/07/27 03:19:36;;;;;;;4.70;3.53;;;19.80;99.90;;;;;;5066897;28;20393;-79
2022/07/27 03:22:20;;;;;;;5.80;4.17;;;19.70;99.90;;;;;;5067845;28;20406;-78
2022/07/27 03:25:05;;;;;;;6.47;4.30;;;19.60;99.90;;;;;;5065412;28;20418;-82
2022/07/27 03:27:50;;;;;;;3.70;3.40;;;19.50;99.90;;;;;;5063672;28;20392;-80
2022/07/27 03:30:34;;;;;;;5.60;3.67;;;19.50;99.90;;;;;;5062486;28;20929;-80
2022/07/27 03:33:19;;;;;;;7.43;4.00;;;19.50;99.90;;;;;;5047937;28;20397;-81
2022/07/27 03:36:03;;;;;;;4.93;4.53;;;19.50;99.90;;;;;;5062013;28;20921;-81
2022/07/27 03:38:48;;;;;;;3.33;3.13;;;19.50;99.90;;;;;;5062165;28;20402;-81
2022/07/27 03:41:32;;;;;;;5.47;3.60;;;19.50;99.90;;;;;;5061754;28;20381;-80
2022/07/27 03:44:17;;;;;;;4.47;4.07;;;19.50;99.90;;;;;;5062301;28;20425;-80
2022/07/27 03:47:01;;;;;;;4.57;4.27;;;19.50;99.90;;;;;;5056798;28;20524;-80
2022/07/27 03:49:46;;;;;;;4.30;4.00;;;19.40;99.90;;;;;;5066319;28;20392;-81
2022/07/27 03:52:31;;;;;;;3.60;3.30;;;19.50;99.90;;;;;;5085791;28;20400;-81
2022/07/27 03:55:15;;;;;;;4.80;3.60;;;19.50;99.90;;;;;;5082773;28;20924;-80
2022/07/27 03:57:59;;;;;;;4.23;3.80;;;19.50;99.90;;;;;;5081976;28;20407;-81
2022/07/27 04:00:44;;;;;;;4.07;3.77;;;19.40;99.90;;;;;;5066540;28;20817;-81
2022/07/27 04:03:28;;;;;;;4.50;4.10;;;19.40;99.90;;;;;;5061118;28;20386;-82
2022/07/27 04:06:12;;;;;;;4.57;4.20;;;19.40;99.90;;;;;;5061394;28;20412;-82
2022/07/27 04:08:56;;;;;;;4.90;4.40;;;19.40;99.90;;;;;;5061729;28;20390;-82
2022/07/27 04:11:43;;;;;;;4.77;4.40;;;19.40;99.90;;;;;;5061821;28;20417;-81
2022/07/27 04:14:27;;;;;;;4.93;4.53;;;19.40;99.90;;;;;;5061369;28;20851;-82
2022/07/27 04:17:11;;;;;;;4.80;4.40;;;19.50;99.90;;;;;;5061383;28;20445;-82
2022/07/27 04:19:55;;;;;;;4.93;4.17;;;19.50;99.90;;;;;;5061046;28;20461;-82
2022/07/27 04:22:39;;;;;;;5.17;4.77;;;19.50;99.90;;;;;;5060629;28;20436;-82
2022/07/27 04:25:24;;;;;;;4.13;3.87;;;19.50;99.90;;;;;;5061335;28;20416;-80
2022/07/27 04:28:08;;;;;;;4.47;4.07;;;19.40;99.90;;;;;;5061406;28;21051;-81
2022/07/27 04:30:53;;;;;;;5.43;4.93;;;19.40;99.90;;;;;;5061582;28;20421;-82
2022/07/27 04:33:37;;;;;;;5.30;4.80;;;19.40;99.90;;;;;;5061441;28;20393;-82
2022/07/27 04:36:21;;;;;;;4.03;3.63;;;19.40;99.90;;;;;;5060773;28;20453;-82
2022/07/27 04:39:06;;;;;;;8.03;5.50;;;19.40;99.90;;;;;;5046205;28;20452;-81
2022/07/27 04:41:50;;;;;;;3.90;3.50;;;19.50;99.90;;;;;;5060877;28;20469;-82
2022/07/27 04:44:34;;;;;;;6.47;4.10;;;19.50;99.90;;;;;;5060639;28;20452;-81
2022/07/27 04:47:19;;;;;;;4.53;4.10;;;19.50;99.90;;;;;;5060548;28;20390;-80
2022/07/27 04:50:04;;;;;;;5.10;4.50;;;19.60;99.90;;;;;;5060004;28;20433;-81
2022/07/27 04:52:48;;;;;;;6.53;4.43;;;19.60;99.90;;;;;;5065950;28;20455;-81
2022/07/27 04:55:32;;;;;;;5.13;4.73;;;19.60;99.90;;;;;;5072682;28;20619;-79
2022/07/27 04:58:17;;;;;;;4.97;4.27;;;19.60;99.90;;;;;;5069023;28;20465;-79
2022/07/27 05:01:02;;;;;;;4.90;4.60;;;19.60;99.90;;;;;;5064281;28;20425;-81
2022/07/27 05:03:46;;;;;;;4.73;4.33;;;19.60;99.90;;;;;;5059603;28;20540;-81
2022/07/27 05:06:32;;;;;;;7.00;4.70;;;19.60;99.90;;;;;;5068146;28;20443;-82
2022/07/27 05:09:16;;;;;;;5.77;4.67;;;19.60;99.90;;;;;;5079582;28;20496;-82
2022/07/27 05:12:00;;;;;;;5.10;4.70;;;19.70;99.90;;;;;;5061396;28;20413;-82
2022/07/27 05:14:45;;;;;;;7.13;4.90;;;19.70;99.90;;;;;;5064138;28;20490;-82
2022/07/27 05:17:29;;;;;;;5.00;4.50;;;19.80;99.90;;;;;;5082094;28;20544;-82
2022/07/27 05:20:15;;;;;;;4.40;4.10;;;19.80;99.90;;;;;;5074442;28;20473;-82
2022/07/27 05:22:59;;;;;;;4.97;4.57;;;19.80;99.90;;;;;;5065754;28;20460;-82
2022/07/27 05:25:44;;;;;;;4.40;3.53;;;19.70;99.90;;;;;;5070150;28;20440;-81
2022/07/27 05:28:30;;;;;;;5.17;4.77;;;19.70;99.90;;;;;;5060389;28;20444;-82
2022/07/27 05:31:14;;;;;;;4.60;4.10;;;19.80;99.90;;;;;;5063435;28;20433;-82
2022/07/27 05:33:59;;;;;;;4.37;3.97;;;19.70;99.90;;;;;;5061879;28;20477;-81
2022/07/27 05:36:44;;;;;;;4.40;3.40;;;19.80;99.90;;;;;;5073082;28;20449;-81
2022/07/27 05:39:28;;;;;;;3.67;3.37;;;19.80;99.90;;;;;;5067077;28;20433;-82
2022/07/27 05:42:13;;;;;;;4.13;3.73;;;19.60;99.90;;;;;;5055791;28;20470;-81
2022/07/27 05:44:57;;;;;;;6.33;3.90;;;19.80;99.90;;;;;;5071890;28;20452;-80
2022/07/27 05:47:42;;;;;;;4.30;4.00;;;19.90;99.90;;;;;;5053186;28;20525;-81
2022/07/27 05:50:26;;;;;;;3.73;3.40;;;19.90;99.90;;;;;;5060615;28;20427;-81
2022/07/27 05:53:11;;;;;;;4.17;3.33;;;20.00;99.90;;;;;;5069224;28;20436;-81
2022/07/27 05:55:56;;;;;;;4.00;3.63;;;20.10;99.90;;;;;;5070755;28;20502;-78
2022/07/27 05:58:40;;;;;;;4.00;3.53;;;20.20;99.90;;;;;;5071126;28;21007;-82
2022/07/27 06:01:25;;;;;;;3.13;2.93;;;20.20;99.90;;;;;;5065116;28;20432;-82
2022/07/27 06:04:09;;;;;;;3.47;3.17;;;20.10;99.90;;;;;;5058560;28;20498;-82
2022/07/27 06:09:53;;;;;;;3.57;3.37;;;20.20;99.90;;;;;;5052166;28;20949;-83
2022/07/27 06:12:40;;;;;;;3.00;2.80;;;20.20;99.90;;;;;;5043668;28;20961;-82
2022/07/27 06:15:24;;;;;;;3.90;3.23;;;20.20;99.90;;;;;;5062504;28;20519;-82
2022/07/27 06:18:16;;;;;;;3.50;2.70;;;20.20;99.90;;;;;;5067866;28;20489;-81
2022/07/27 06:21:01;;;;;;;3.07;2.87;;;20.20;99.90;;;;;;5062922;28;20485;-82
2022/07/27 06:23:47;;;;;;;3.77;3.50;;;20.20;99.90;;;;;;5053775;28;20421;-81
2022/07/27 06:26:34;;;;;;;3.10;2.87;;;20.20;99.90;;;;;;5052995;28;20608;-79
2022/07/27 06:29:19;;;;;;;3.93;3.47;;;20.20;99.90;;;;;;5056146;28;20453;-81
2022/07/27 06:32:04;;;;;;;3.57;3.17;;;20.20;99.90;;;;;;5038199;28;20488;-79
2022/07/27 06:34:48;;;;;;;3.67;3.37;;;20.30;99.90;;;;;;5045142;28;20432;-80
2022/07/27 06:37:33;;;;;;;3.73;3.43;;;20.20;99.90;;;;;;5061712;28;20514;-80
2022/07/27 06:40:19;;;;;;;3.77;3.10;;;20.30;99.90;;;;;;5076043;28;20433;-79
2022/07/27 06:43:03;;;;;;;3.90;3.47;;;20.40;99.90;;;;;;5078702;28;20529;-80
2022/07/27 06:45:48;;;;;;;4.30;3.00;;;20.40;99.90;;;;;;5082781;28;20443;-80
2022/07/27 06:48:33;;;;;;;4.80;3.37;;;20.50;99.90;;;;;;5063247;28;20420;-79
2022/07/27 06:51:17;;;;;;;5.93;3.10;;;20.40;99.90;;;;;;5056757;28;20425;-81
2022/07/27 06:54:02;;;;;;;4.70;3.57;;;20.40;99.90;;;;;;5071454;28;20471;-81
2022/07/27 06:56:47;;;;;;;3.53;3.10;;;20.30;99.90;;;;;;5071205;28;20507;-82
2022/07/27 06:59:33;;;;;;;3.17;2.90;;;20.30;99.90;;;;;;5073648;28;20437;-80
2022/07/27 07:02:18;;;;;;;3.77;3.30;;;20.40;99.90;;;;;;5062535;28;20524;-82
2022/07/27 07:05:04;;;;;;;2.73;2.53;;;20.60;99.90;;;;;;5073181;28;20432;-82
2022/07/27 07:07:48;;;;;;;3.37;3.07;;;20.70;99.90;;;;;;5072842;28;20448;-82
2022/07/27 07:10:33;;;;;;;2.93;2.63;;;20.80;99.90;;;;;;5050988;28;20425;-80
2022/07/27 07:13:17;;;;;;;3.63;2.90;;;20.80;99.90;;;;;;5069393;28;20487;-81
2022/07/27 07:16:02;;;;;;;3.37;3.10;;;20.90;99.90;;;;;;5071717;28;20465;-82
2022/07/27 07:18:46;;;;;;;5.23;3.17;;;20.80;99.90;;;;;;5069181;28;20454;-82
2022/07/27 07:21:30;;;;;;;2.67;2.47;;;21.00;99.90;;;;;;5065728;28;20839;-82
2022/07/27 07:24:15;;;;;;;4.33;2.87;;;20.90;99.90;;;;;;5069807;28;20466;-82
2022/07/27 07:26:59;;;;;;;3.20;2.67;;;21.00;99.90;;;;;;5071935;28;20456;-82
2022/07/27 07:29:44;;;;;;;4.80;3.20;;;21.00;99.90;;;;;;5068044;28;20513;-81
2022/07/27 07:32:29;;;;;;;3.00;2.70;;;20.80;99.90;;;;;;5063586;28;20436;-80
2022/07/27 07:35:13;;;;;;;2.80;2.60;;;20.80;99.90;;;;;;5054672;28;20902;-78
2022/07/27 07:37:59;;;;;;;3.33;3.00;;;20.70;99.90;;;;;;5077097;28;20802;-80
2022/07/27 07:40:44;;;;;;;4.73;2.47;;;20.70;99.90;;;;;;5050651;28;20424;-80
2022/07/27 07:43:28;;;;;;;5.50;2.73;;;20.60;99.90;;;;;;5053538;28;21126;-80
2022/07/27 07:46:14;;;;;;;2.97;2.70;;;20.60;99.90;;;;;;5056013;28;20526;-80
2022/07/27 07:49:02;;;;;;;10.43;2.80;;;20.50;99.90;;;;;;5069199;28;20481;-80
2022/07/27 07:51:49;;;;;;;2.67;2.57;;;20.40;99.90;;;;;;5056512;28;20452;-82
2022/07/27 07:54:35;;;;;;;2.67;2.30;;;20.30;99.90;;;;;;5003063;28;20530;-83
2022/07/27 07:57:20;;;;;;;3.90;2.77;;;20.20;99.90;;;;;;4980414;28;20470;-80
2022/07/27 08:00:07;;;;;;;4.03;2.70;;;20.10;99.90;;;;;;4997209;28;20435;-81
2022/07/27 08:02:54;;;;;;;3.47;3.27;;;20.10;99.90;;;;;;4994091;28;20439;-82
2022/07/27 08:05:38;;;;;;;3.87;2.60;;;20.20;99.90;;;;;;4994096;28;21106;-80
2022/07/27 08:08:23;;;;;;;3.80;3.30;;;20.10;99.90;;;;;;4996963;28;20471;-80
2022/07/27 08:11:07;;;;;;;4.63;4.10;;;20.00;99.90;;;;;;4974075;28;20454;-80
2022/07/27 08:13:51;;;;;;;7.23;3.23;;;19.90;99.90;;;;;;4996002;28;20467;-81
2022/07/27 08:16:37;;;;;;;3.87;3.47;;;19.80;99.90;;;;;;5003107;28;20474;-81
2022/07/27 08:19:22;;;;;;;7.43;3.87;;;19.90;99.90;;;;;;4995440;28;20999;-82
2022/07/27 08:22:06;;;;;;;4.03;3.60;;;20.10;99.90;;;;;;5002169;28;20456;-81
2022/07/27 08:24:51;;;;;;;6.63;4.10;;;20.20;99.90;;;;;;5007665;28;20441;-81
2022/07/27 08:27:35;;;;;;;3.80;3.40;;;20.30;99.90;;;;;;5000698;28;20495;-79
2022/07/27 08:30:41;;;;;;;4.63;3.30;;;20.30;99.90;;;;;;4999519;28;20483;-82
2022/07/27 08:33:30;;;;;;;3.23;2.90;;;20.40;99.90;;;;;;4968134;28;20437;-83
2022/07/27 08:36:15;;;;;;;5.03;4.00;;;20.50;99.90;;;;;;4972299;28;20457;-82
2022/07/27 08:39:05;;;;;;;5.20;4.03;;;20.30;99.90;;;;;;4990611;28;20435;-83
2022/07/27 08:41:52;;;;;;;6.63;4.37;;;19.60;99.90;;;;;;5008328;28;20489;-82
2022/07/27 08:44:40;;;;;;;6.83;4.77;;;19.90;99.90;;;;;;5002294;28;20488;-83
2022/07/27 08:47:45;;;;;;;5.20;4.70;;;20.30;99.90;;;;;;4997100;28;20486;-82
2022/07/27 08:50:33;;;;;;;8.97;4.53;;;20.60;99.90;;;;;;4940524;28;20441;-83
2022/07/27 08:53:18;;;;;;;6.00;4.90;;;20.50;99.90;;;;;;4920387;29;20535;-82
2022/07/27 08:56:03;;;;;;;6.50;4.83;;;20.90;99.90;;;;;;4901712;29;21646;-82
2022/07/27 08:58:48;;;;;;;6.37;4.10;;;20.40;99.90;;;;;;4902813;29;20547;-82
2022/07/27 09:01:35;;;;;;;4.70;4.30;;;20.50;99.90;;;;;;4880960;29;20486;-80
2022/07/27 09:04:20;;;;;;;3.83;3.53;;;20.70;99.90;;;;;;4891728;29;20844;-81
2022/07/27 09:07:04;;;;;;;4.80;4.40;;;20.40;99.90;;;;;;4917829;29;20530;-82
2022/07/27 09:09:49;;;;;;;7.70;5.17;;;20.50;99.90;;;;;;4903664;29;20457;-79
2022/07/27 09:12:34;;;;;;;4.90;4.37;;;20.80;99.90;;;;;;4928749;29;20515;-81
2022/07/27 09:15:38;;;;;;;5.07;4.60;;;20.60;99.90;;;;;;4928166;29;20518;-82
2022/07/27 09:18:25;;;;;;;4.63;3.70;;;20.70;99.90;;;;;;4900301;29;20437;-83
2022/07/27 09:21:17;;;;;;;5.53;3.80;;;21.50;99.90;;;;;;4912683;29;20997;-82
2022/07/27 09:24:11;;;;;;;4.00;3.07;;;21.80;99.90;;;;;;4925126;29;20457;-82
2022/07/27 09:27:02;;;;;;;6.13;3.57;;;21.90;99.90;;;;;;4921874;29;21237;-82
2022/07/27 09:29:46;;;;;;;4.60;4.20;;;22.00;99.90;;;;;;4911298;29;20944;-82
2022/07/27 09:32:31;;;;;;;3.30;2.80;;;22.00;99.90;;;;;;4947942;28;20580;-82
2022/07/27 09:35:20;;;;;;;4.87;4.27;;;21.90;99.90;;;;;;5002663;28;20488;-81
2022/07/27 09:38:21;;;;;;;4.40;4.10;;;21.80;99.90;;;;;;5004846;28;20478;-82
2022/07/27 09:41:06;;;;;;;4.37;3.43;;;21.60;99.90;;;;;;5004171;28;20526;-82
2022/07/27 09:43:53;;;;;;;6.60;6.10;;;21.50;99.90;;;;;;4994851;28;20555;-80
2022/07/27 09:46:39;;;;;;;5.20;4.30;;;21.60;99.90;;;;;;4999876;28;20496;-81
2022/07/27 09:49:29;;;;;;;6.60;4.60;;;21.80;99.90;;;;;;5039246;28;20954;-81
2022/07/27 09:52:26;;;;;;;5.20;4.10;;;21.50;99.90;;;;;;5062928;28;20436;-82
2022/07/27 09:55:10;;;;;;;4.43;3.63;;;22.10;99.90;;;;;;4993680;28;20499;-82
2022/07/27 09:57:57;;;;;;;3.80;3.50;;;22.00;99.90;;;;;;4996059;28;20542;-83
2022/07/27 10:00:55;;;;;;;4.60;3.90;;;22.60;99.90;;;;;;5010968;28;20581;-80
2022/07/27 10:03:42;;;;;;;4.47;4.07;;;22.70;99.90;;;;;;5007955;28;20447;-81
2022/07/27 10:06:28;;;;;;;5.20;4.23;;;23.10;99.90;;;;;;5004531;28;20531;-82
2022/07/27 10:09:13;;;;;;;5.37;4.17;;;22.60;99.90;;;;;;4996213;28;20437;-82
2022/07/27 10:11:58;;;;;;;4.70;4.30;;;22.90;99.90;;;;;;4995037;28;20459;-82
2022/07/27 10:14:43;;;;;;;4.20;3.80;;;23.20;99.90;;;;;;5003208;28;20646;-82
2022/07/27 10:17:30;;;;;;;3.80;3.50;;;23.50;99.90;;;;;;4967127;28;20467;-82
2022/07/27 10:20:17;;;;;;;4.17;3.77;;;23.50;99.90;;;;;;4981723;28;20524;-82
2022/07/27 10:23:01;;;;;;;7.00;4.00;;;23.50;99.90;;;;;;5010036;28;20519;-81
2022/07/27 10:25:46;;;;;;;4.17;3.70;;;23.70;99.90;;;;;;4996913;28;20841;-81
2022/07/27 10:28:30;;;;;;;7.00;4.03;;;23.50;99.90;;;;;;5058440;28;20714;-81
2022/07/27 10:31:17;;;;;;;4.63;3.17;;;23.50;99.90;;;;;;5046529;28;20527;-81
2022/07/27 10:34:05;;;;;;;4.87;4.37;;;23.50;99.90;;;;;;5055432;28;20421;-82
2022/07/27 10:36:52;;;;;;;3.60;3.30;;;23.50;99.90;;;;;;5057459;28;20477;-83
2022/07/27 10:39:41;;;;;;;4.27;3.50;;;23.70;99.90;;;;;;5031236;28;20554;-83
2022/07/27 10:42:29;;;;;;;4.00;3.70;;;23.70;99.90;;;;;;5039913;28;20470;-83
2022/07/27 10:45:17;;;;;;;4.97;3.90;;;24.20;99.90;;;;;;5063869;28;20241;-83
2022/07/27 10:48:02;;;;;;;7.37;3.83;;;24.70;99.90;;;;;;5040206;28;20445;-83
2022/07/27 10:50:48;;;;;;;4.40;3.30;;;24.70;99.90;;;;;;5054855;28;20440;-80
2022/07/27 10:53:39;;;;;;;9.47;4.73;;;24.10;99.90;;;;;;5042174;28;20529;-83
2022/07/27 10:56:49;;;;;;;3.73;3.43;;;23.70;99.90;;;;;;4994193;28;21110;-82
2022/07/27 10:59:53;;;;;;;3.97;3.67;;;24.50;99.90;;;;;;4980278;28;20439;-82
2022/07/27 11:02:42;;;;;;;7.07;3.30;;;24.20;99.90;;;;;;4959811;28;20441;-82
2022/07/27 11:05:30;;;;;;;5.37;4.57;;;24.50;99.90;;;;;;4944776;28;20468;-83
2022/07/27 11:08:22;;;;;;;4.17;3.30;;;24.20;99.90;;;;;;4948693;28;20437;-83
2022/07/27 11:11:09;;;;;;;3.87;3.57;;;23.60;99.90;;;;;;4972226;28;21390;-82
2022/07/27 11:13:59;;;;;;;6.80;3.57;;;23.00;99.90;;;;;;4965236;28;20464;-82
2022/07/27 11:16:44;;;;;;;3.90;3.30;;;23.10;99.90;;;;;;4950368;28;20484;-83
2022/07/27 11:19:28;;;;;;;3.90;3.13;;;24.40;99.90;;;;;;4980932;28;20451;-81
2022/07/27 11:22:32;;;;;;;7.13;3.30;;;25.10;99.90;;;;;;4943547;29;20450;-81
2022/07/27 11:25:16;;;;;;;8.60;3.50;;;25.80;99.90;;;;;;4944592;29;20446;-83
2022/07/27 11:28:06;;;;;;;8.17;3.30;;;25.70;99.90;;;;;;4941601;29;20924;-79
2022/07/27 11:30:50;;;;;;;9.10;3.70;;;24.10;99.90;;;;;;4929506;29;20459;-81
2022/07/27 11:33:35;;;;;;;5.93;3.40;;;23.60;99.90;;;;;;4947703;28;20999;-80
2022/07/27 11:36:20;;;;;;;3.77;3.37;;;24.70;99.90;;;;;;4957715;28;20782;-81
2022/07/27 11:39:06;;;;;;;5.30;3.40;;;25.30;99.90;;;;;;4966365;28;20509;-83
2022/07/27 11:42:00;;;;;;;3.87;3.47;;;25.30;99.90;;;;;;4952341;28;20812;-81
2022/07/27 11:44:45;;;;;;;6.07;3.17;;;24.80;99.90;;;;;;4953979;28;20722;-82
2022/07/27 11:47:32;;;;;;;3.40;3.10;;;24.60;99.90;;;;;;5007341;28;20548;-82
2022/07/27 11:50:55;;;;;;;3.17;2.97;;;24.90;99.90;;;;;;5012929;28;20447;-82
2022/07/27 11:53:41;;;;;;;2.93;2.40;;;25.10;99.90;;;;;;4998123;28;20447;-83
2022/07/27 11:56:29;;;;;;;3.90;3.53;;;24.90;99.90;;;;;;4985246;28;21033;-82
2022/07/27 11:59:17;;;;;;;3.17;2.63;;;25.00;99.90;;;;;;4982797;28;20463;-83
2022/07/27 12:02:20;;;;;;;3.13;2.90;;;25.10;99.90;;;;;;4970989;28;20488;-82
2022/07/27 12:05:10;;;;;;;3.97;2.80;;;25.30;99.90;;;;;;4978004;28;20460;-81
2022/07/27 12:07:54;;;;;;;3.00;2.80;;;25.70;99.90;;;;;;4924644;29;20475;-81
2022/07/27 12:11:00;;;;;;;5.10;2.90;;;26.00;99.90;;;;;;4918372;29;20613;-79
2022/07/27 12:13:47;;;;;;;4.23;2.43;;;26.00;99.90;;;;;;4887561;29;20463;-82
2022/07/27 12:16:32;;;;;;;3.13;2.93;;;25.30;99.90;;;;;;4883255;29;21109;-81
2022/07/27 12:19:24;;;;;;;2.70;2.50;;;25.60;99.90;;;;;;4863116;29;20462;-83
2022/07/27 12:22:09;;;;;;;5.10;3.50;;;25.10;99.90;;;;;;4850417;29;20442;-83
2022/07/27 12:24:55;;;;;;;2.87;2.50;;;24.50;99.90;;;;;;4851702;29;20487;-83
2022/07/27 12:27:39;;;;;;;3.73;2.90;;;24.90;99.90;;;;;;4863674;29;20476;-83
2022/07/27 12:30:45;;;;;;;3.13;2.83;;;25.50;99.90;;;;;;4867520;29;20616;-82
2022/07/27 12:33:35;;;;;;;5.97;3.30;;;25.70;99.90;;;;;;4929981;29;20510;-83
2022/07/27 12:36:30;;;;;;;3.23;2.40;;;25.30;99.90;;;;;;4934071;29;20555;-82
2022/07/27 12:39:34;;;;;;;4.20;2.67;;;25.30;99.90;;;;;;4942305;29;20505;-82
2022/07/27 12:42:20;;;;;;;3.43;3.00;;;25.40;99.90;;;;;;4892097;29;20743;-84
2022/07/27 12:45:13;;;;;;;3.43;3.13;;;25.70;99.90;;;;;;4893810;29;20477;-84
2022/07/27 12:48:12;;;;;;;3.63;2.43;;;25.60;99.90;;;;;;4905154;29;20507;-81
2022/07/27 12:51:07;;;;;;;3.43;3.00;;;24.90;99.90;;;;;;4917710;29;20426;-79
2022/07/27 12:53:56;;;;;;;2.97;2.63;;;25.50;99.90;;;;;;4919937;29;20437;-83
2022/07/27 12:56:40;;;;;;;2.93;2.63;;;25.70;99.90;;;;;;4931834;28;20505;-83
2022/07/27 12:59:25;;;;;;;3.50;3.30;;;26.20;99.90;;;;;;4962752;28;20456;-82
2022/07/27 13:02:12;;;;;;;4.30;2.60;;;26.10;99.90;;;;;;4954638;28;20446;-82
2022/07/27 13:05:01;;;;;;;3.33;3.03;;;26.10;99.90;;;;;;4929884;29;20429;-84
2022/07/27 13:07:46;;;;;;;5.43;2.43;;;26.30;99.90;;;;;;4955866;29;20525;-83
2022/07/27 13:10:31;;;;;;;4.50;2.97;;;25.70;99.90;;;;;;4960128;29;20797;-82
2022/07/27 13:13:15;;;;;;;2.40;2.20;;;25.80;99.90;;;;;;4963522;28;20495;-83
2022/07/27 13:15:59;;;;;;;3.63;2.70;;;25.20;99.90;;;;;;4955641;28;20468;-81
2022/07/27 13:18:44;;;;;;;5.63;2.70;;;25.90;99.90;;;;;;4971641;28;20468;-81
2022/07/27 13:21:29;;;;;;;4.47;2.60;;;26.10;99.90;;;;;;4956510;28;20472;-79
2022/07/27 13:24:14;;;;;;;3.47;2.97;;;26.00;99.90;;;;;;4958384;28;20436;-80
2022/07/27 13:26:59;;;;;;;4.93;2.90;;;26.40;99.90;;;;;;4972439;28;20456;-83
2022/07/27 13:29:44;;;;;;;3.60;2.60;;;26.70;98.80;;;;;;4999630;28;20501;-82
2022/07/27 13:32:28;;;;;;;7.10;3.20;;;26.80;98.10;;;;;;5029640;28;20457;-81
2022/07/27 13:35:13;;;;;;;2.27;2.17;;;26.00;99.90;;;;;;5014247;28;20515;-81
2022/07/27 13:37:58;;;;;;;4.90;3.30;;;26.40;98.90;;;;;;5024656;28;20928;-80
2022/07/27 13:40:43;;;;;;;4.70;3.03;;;26.90;98.80;;;;;;5018023;28;21001;-80
2022/07/27 13:43:28;;;;;;;3.40;2.23;;;27.10;97.60;;;;;;5018676;28;20445;-82
2022/07/27 13:46:13;;;;;;;2.43;2.23;;;27.30;95.80;;;;;;5022565;28;20452;-81
2022/07/27 13:48:58;;;;;;;5.13;3.10;;;27.40;96.10;;;;;;5036894;28;20493;-80
2022/07/27 13:51:46;;;;;;;5.37;1.90;;;27.10;97.40;;;;;;5035171;28;20461;-82
2022/07/27 13:54:31;;;;;;;3.47;2.63;;;27.50;95.20;;;;;;5016236;28;20433;-83
2022/07/27 13:57:17;;;;;;;2.77;2.30;;;27.30;95.80;;;;;;5026043;28;20516;-83
2022/07/27 14:00:05;;;;;;;4.13;2.30;;;27.70;95.10;;;;;;5026204;28;20507;-84
2022/07/27 14:02:51;;;;;;;4.47;2.20;;;27.30;93.30;;;;;;5026432;28;20552;-81
2022/07/27 14:05:36;;;;;;;4.47;3.07;;;27.60;95.90;;;;;;5024428;28;20851;-80
2022/07/27 14:08:20;;;;;;;3.60;2.30;;;26.50;95.20;;;;;;5025665;28;20422;-81
2022/07/27 14:11:25;;;;;;;2.60;2.40;;;28.20;93.30;;;;;;4988155;28;20468;-83
2022/07/27 14:14:10;;;;;;;2.50;2.30;;;28.50;93.30;;;;;;4965524;28;20773;-83
2022/07/27 14:16:55;;;;;;;3.43;2.40;;;27.10;92.60;;;;;;4963014;28;20465;-82
2022/07/27 14:19:45;;;;;;;3.90;2.80;;;28.20;92.80;;;;;;4951638;28;20197;-82
2022/07/27 14:22:31;;;;;;;2.13;1.83;;;28.40;91.10;;;;;;4952134;28;20479;-83
2022/07/27 14:25:16;;;;;;;3.73;2.70;;;28.10;90.50;;;;;;4958640;28;20416;-83
2022/07/27 14:28:03;;;;;;;2.40;2.20;;;27.80;89.20;;;;;;4972769;28;20812;-79
2022/07/27 14:30:48;;;;;;;2.90;1.80;;;28.10;88.30;;;;;;4959442;28;20505;-82